Time;durP1;ratioP1;P1;durP2;ratioP2;P2;SDS_P1;SDS_P2;PMS_P1;PMS_P2;Temp;Humidity;BMP_temperature;BMP_pressure;BME280_temperature;BME280_humidity;BME280_pressure;Samples;Min_cycle;Max_cycle;Signal;HPM_P1;HPM_P2
2021/05/31 00:01:36;;;;;;;3.83;2.73;;;;;;;8.62;77.92;98713.91;5094334;28;20211;-68
2021/05/31 00:04:03;;;;;;;2.77;2.50;;;;;;;8.59;78.02;98698.25;5094210;28;20210;-65
2021/05/31 00:06:29;;;;;;;2.40;2.20;;;;;;;8.55;79.47;98701.97;5094211;28;20207;-64
2021/05/31 00:08:56;;;;;;;3.77;2.70;;;;;;;8.48;80.16;98692.69;5094339;28;20301;-65
2021/05/31 00:11:22;;;;;;;3.63;2.63;;;;;;;8.46;79.12;98686.66;5092303;28;20206;-65
2021/05/31 00:13:48;;;;;;;2.60;2.40;;;;;;;8.45;78.83;98696.31;5093930;28;20289;-64
2021/05/31 00:16:14;;;;;;;2.80;2.50;;;;;;;8.37;79.19;98693.25;5093934;28;20237;-64
2021/05/31 00:18:40;;;;;;;3.63;2.60;;;;;;;8.33;79.71;98696.13;5094077;28;20214;-66
2021/05/31 00:21:06;;;;;;;3.37;2.80;;;;;;;8.29;81.05;98691.94;5093831;28;20301;-66
2021/05/31 00:23:32;;;;;;;3.37;2.70;;;;;;;8.26;81.12;98689.47;5094032;28;20210;-65
2021/05/31 00:25:59;;;;;;;3.97;2.50;;;;;;;8.35;78.50;98678.44;5094105;28;20215;-65
2021/05/31 00:28:26;;;;;;;2.87;2.20;;;;;;;8.35;78.13;98684.56;5093763;28;20582;-65
2021/05/31 00:30:52;;;;;;;2.97;2.40;;;;;;;8.40;75.51;98681.69;5093613;28;20214;-65
2021/05/31 00:33:18;;;;;;;2.93;2.17;;;;;;;8.43;74.43;98681.53;5093536;28;20211;-66
2021/05/31 00:35:44;;;;;;;2.50;2.30;;;;;;;8.50;74.17;98677.66;5092119;28;20226;-65
2021/05/31 00:38:10;;;;;;;3.43;2.47;;;;;;;8.58;72.91;98681.56;5093476;28;20328;-65
2021/05/31 00:40:36;;;;;;;2.90;2.30;;;;;;;8.61;72.88;98677.94;5093753;28;20288;-65
2021/05/31 00:43:03;;;;;;;2.73;2.43;;;;;;;8.57;73.62;98671.97;5093302;28;20235;-66
2021/05/31 00:45:29;;;;;;;2.97;2.43;;;;;;;8.46;75.95;98676.09;5093317;28;20206;-66
2021/05/31 00:47:55;;;;;;;2.70;2.50;;;;;;;8.39;76.46;98669.47;5093608;28;20207;-65
2021/05/31 00:50:21;;;;;;;3.73;2.63;;;;;;;8.30;77.85;98664.66;5093645;28;20206;-67
2021/05/31 00:52:47;;;;;;;4.10;2.50;;;;;;;8.25;77.15;98659.63;5093480;28;20215;-65
2021/05/31 00:55:14;;;;;;;3.13;2.40;;;;;;;8.26;76.69;98663.13;5093435;28;20223;-65
2021/05/31 00:57:40;;;;;;;2.97;2.10;;;;;;;8.27;75.58;98660.41;5093376;28;20217;-65
2021/05/31 01:00:09;;;;;;;2.60;2.37;;;;;;;8.41;73.56;98664.97;5093272;28;20580;-65
2021/05/31 01:02:35;;;;;;;3.20;2.60;;;;;;;8.37;74.80;98661.63;5091661;28;20696;-65
2021/05/31 01:05:01;;;;;;;3.00;2.23;;;;;;;8.41;73.45;98662.31;5093351;28;20211;-65
2021/05/31 01:07:38;;;;;;;4.87;2.40;;;;;;;8.59;71.69;98656.97;5093102;28;20214;-65
2021/05/31 01:10:14;;;;;;;2.30;2.10;;;;;;;8.53;73.29;98661.69;5093038;28;20216;-65
2021/05/31 01:12:44;;;;;;;3.70;2.50;;;;;;;8.46;73.60;98660.31;5093055;28;20228;-65
2021/05/31 01:15:15;;;;;;;2.57;2.37;;;;;;;8.29;75.13;98658.56;5093143;28;20222;-65
2021/05/31 01:17:47;;;;;;;2.67;2.47;;;;;;;8.18;76.00;98654.72;5092963;28;20217;-65
2021/05/31 01:20:34;;;;;;;3.20;2.30;;;;;;;8.08;76.22;98653.50;5093345;28;20203;-65
2021/05/31 01:23:02;;;;;;;3.33;2.37;;;;;;;7.99;77.46;98659.22;5092797;28;20220;-65
2021/05/31 01:25:33;;;;;;;2.47;2.27;;;;;;;7.86;79.12;98652.88;5093222;28;20566;-65
2021/05/31 01:28:42;;;;;;;2.50;2.20;;;;;;;7.77;79.14;98656.81;5095442;28;20347;-65
2021/05/31 01:31:09;;;;;;;2.70;2.40;;;;;;;7.80;80.05;98664.56;5097191;28;20221;-65
2021/05/31 01:33:36;;;;;;;2.63;2.20;;;;;;;7.84;80.69;98660.00;5097424;28;20206;-65
2021/05/31 01:36:04;;;;;;;2.60;2.40;;;;;;;7.82;81.31;98648.69;5097123;28;20303;-65
2021/05/31 01:38:33;;;;;;;2.97;2.13;;;;;;;7.87;80.63;98650.19;5097286;28;20214;-65
2021/05/31 01:41:00;;;;;;;3.23;2.30;;;;;;;7.85;81.06;98651.19;5096864;28;20203;-65
2021/05/31 01:43:28;;;;;;;2.30;2.00;;;;;;;7.85;82.04;98656.44;5097110;28;20238;-65
2021/05/31 01:45:54;;;;;;;2.57;2.33;;;;;;;7.86;81.97;98647.63;5097006;28;20573;-65
2021/05/31 01:48:21;;;;;;;3.70;2.50;;;;;;;7.85;82.05;98651.19;5096945;28;20217;-65
2021/05/31 01:50:48;;;;;;;3.60;2.60;;;;;;;7.82;82.76;98648.69;5096986;28;20226;-65
2021/05/31 01:53:15;;;;;;;3.60;2.33;;;;;;;7.83;83.48;98647.78;5096687;28;20210;-65
2021/05/31 01:55:43;;;;;;;3.90;2.50;;;;;;;7.82;83.41;98644.28;5095251;28;20686;-64
2021/05/31 01:58:09;;;;;;;3.30;2.50;;;;;;;7.84;83.45;98649.47;5096935;28;20261;-64
2021/05/31 02:00:36;;;;;;;2.77;2.30;;;;;;;7.85;83.84;98645.91;5096596;28;20672;-64
2021/05/31 02:03:03;;;;;;;3.67;2.50;;;;;;;7.85;84.17;98645.91;5096728;28;20215;-64
2021/05/31 02:05:30;;;;;;;3.40;2.50;;;;;;;7.85;84.25;98648.56;5096616;28;20210;-64
2021/05/31 02:07:56;;;;;;;3.10;2.43;;;;;;;7.82;84.90;98643.41;5096326;28;20703;-64
2021/05/31 02:10:22;;;;;;;3.10;2.57;;;;;;;7.81;85.21;98639.09;5096577;28;20214;-64
2021/05/31 02:12:51;;;;;;;3.03;2.67;;;;;;;7.82;83.97;98641.66;5096579;28;20221;-64
2021/05/31 02:15:21;;;;;;;2.60;2.40;;;;;;;7.80;82.33;98637.41;5096311;28;20239;-65
2021/05/31 02:17:58;;;;;;;2.53;2.30;;;;;;;7.76;81.13;98638.47;5096086;28;20207;-65
2021/05/31 02:20:26;;;;;;;2.87;2.40;;;;;;;7.74;81.67;98640.34;5094485;28;20214;-65
2021/05/31 02:22:56;;;;;;;3.13;2.70;;;;;;;7.68;82.10;98644.13;5096430;28;20203;-65
2021/05/31 02:25:22;;;;;;;3.23;2.40;;;;;;;7.69;83.25;98637.06;5096447;28;20214;-64
2021/05/31 02:27:50;;;;;;;2.70;2.50;;;;;;;7.68;85.24;98638.00;5096360;28;20211;-64
2021/05/31 02:30:17;;;;;;;3.10;2.80;;;;;;;7.64;85.94;98634.69;5096022;28;20203;-65
2021/05/31 02:32:50;;;;;;;3.07;2.70;;;;;;;7.63;85.77;98632.13;5095890;28;20571;-65
2021/05/31 02:35:17;;;;;;;2.73;2.23;;;;;;;7.64;86.14;98639.06;5096044;28;20533;-65
2021/05/31 02:37:43;;;;;;;3.20;2.60;;;;;;;7.66;83.75;98639.88;5095866;28;20215;-65
2021/05/31 02:40:11;;;;;;;2.63;2.20;;;;;;;7.63;83.38;98642.63;5095636;28;20328;-64
2021/05/31 02:42:38;;;;;;;2.70;2.50;;;;;;;7.57;84.28;98643.81;5095473;28;20743;-64
2021/05/31 02:45:05;;;;;;;3.20;2.37;;;;;;;7.50;84.66;98636.28;5095611;28;20211;-65
2021/05/31 02:47:32;;;;;;;4.57;2.73;;;;;;;7.51;83.68;98640.59;5094124;28;20293;-65
2021/05/31 02:49:58;;;;;;;2.50;2.30;;;;;;;7.49;83.14;98643.34;5095946;28;20207;-65
2021/05/31 02:52:24;;;;;;;4.87;2.87;;;;;;;7.45;83.28;98647.03;5095792;28;20214;-65
2021/05/31 02:54:51;;;;;;;2.63;2.23;;;;;;;7.47;81.01;98637.28;5095792;28;20214;-65
2021/05/31 02:57:19;;;;;;;2.53;2.20;;;;;;;7.50;79.95;98638.91;5095371;28;20279;-65
2021/05/31 02:59:45;;;;;;;3.57;2.00;;;;;;;7.54;78.27;98645.72;5095571;28;20207;-66
2021/05/31 03:02:11;;;;;;;4.03;2.23;;;;;;;7.50;78.94;98641.53;5095690;28;20217;-66
2021/05/31 03:04:37;;;;;;;3.00;2.47;;;;;;;7.41;79.32;98636.75;5095673;28;20209;-65
2021/05/31 03:07:03;;;;;;;2.67;2.30;;;;;;;7.36;81.52;98639.56;5095236;28;20210;-64
2021/05/31 03:09:29;;;;;;;2.57;2.30;;;;;;;7.32;80.86;98639.81;5095303;28;20213;-64
2021/05/31 03:11:55;;;;;;;2.60;2.17;;;;;;;7.27;81.73;98640.97;5095359;28;20210;-65
2021/05/31 03:14:23;;;;;;;5.17;2.60;;;;;;;7.17;82.79;98639.69;5093931;28;20275;-65
2021/05/31 03:16:49;;;;;;;3.80;2.60;;;;;;;7.17;83.62;98640.56;5095066;28;20238;-65
2021/05/31 03:19:15;;;;;;;2.77;2.50;;;;;;;7.08;83.96;98638.34;5095104;28;20256;-65
2021/05/31 03:21:40;;;;;;;2.83;2.37;;;;;;;6.98;84.90;98641.47;5095104;28;20282;-65
2021/05/31 03:24:07;;;;;;;3.13;2.80;;;;;;;6.90;86.83;98636.56;5095150;28;20230;-65
2021/05/31 03:26:33;;;;;;;2.87;2.27;;;;;;;6.86;86.81;98639.41;5095055;28;20213;-65
2021/05/31 03:28:59;;;;;;;3.33;2.60;;;;;;;6.82;86.82;98638.72;5095127;28;20257;-64
2021/05/31 03:31:26;;;;;;;3.00;2.70;;;;;;;6.79;87.32;98638.84;5094779;28;20572;-65
2021/05/31 03:33:52;;;;;;;2.80;2.40;;;;;;;6.80;87.04;98639.69;5094668;28;20215;-65
2021/05/31 03:36:18;;;;;;;2.50;2.30;;;;;;;6.80;86.69;98645.81;5094885;28;20576;-65
2021/05/31 03:38:44;;;;;;;4.17;2.40;;;;;;;6.78;86.44;98642.41;5093277;28;20206;-65
2021/05/31 03:41:10;;;;;;;2.53;2.30;;;;;;;6.79;86.98;98638.84;5094372;28;20222;-65
2021/05/31 03:43:36;;;;;;;4.37;2.90;;;;;;;6.83;85.95;98640.41;5094811;28;20212;-65
2021/05/31 03:46:02;;;;;;;3.13;2.67;;;;;;;6.83;86.60;98648.28;5094578;28;20225;-65
2021/05/31 03:48:29;;;;;;;4.37;2.67;;;;;;;6.94;86.21;98642.53;5094238;28;20566;-64
2021/05/31 03:51:08;;;;;;;3.77;2.50;;;;;;;7.00;86.72;98645.75;5094340;28;20217;-64
2021/05/31 03:53:34;;;;;;;3.20;2.63;;;;;;;7.02;86.39;98653.56;5094681;28;20210;-64
2021/05/31 03:56:00;;;;;;;5.83;2.87;;;;;;;7.05;86.17;98646.38;5094249;28;20310;-64
2021/05/31 03:58:26;;;;;;;2.93;2.63;;;;;;;7.09;86.07;98653.19;5094300;28;20205;-64
2021/05/31 04:00:53;;;;;;;3.00;2.63;;;;;;;7.07;86.13;98649.78;5094627;28;20214;-65
2021/05/31 04:03:19;;;;;;;3.27;2.60;;;;;;;7.05;86.33;98654.28;5094329;28;20220;-65
2021/05/31 04:05:56;;;;;;;3.33;2.37;;;;;;;7.08;87.38;98646.22;5092668;28;20229;-64
2021/05/31 04:14:07;;;;;;;4.23;2.87;;;;;;;7.22;87.34;98642.03;5051585;28;20346;-64
2021/05/31 04:16:33;;;;;;;2.87;2.50;;;;;;;7.24;86.78;98649.84;5051429;28;20252;-64
2021/05/31 04:19:00;;;;;;;4.27;3.00;;;;;;;7.31;87.72;98651.25;5070508;28;20210;-63
2021/05/31 04:21:27;;;;;;;3.30;3.00;;;;;;;7.34;87.67;98645.84;5094165;28;20214;-64
2021/05/31 04:23:54;;;;;;;2.93;2.63;;;;;;;7.33;88.84;98646.75;5093979;28;20224;-64
2021/05/31 04:26:20;;;;;;;3.33;2.73;;;;;;;7.43;88.34;98643.63;5093985;28;20210;-63
2021/05/31 04:28:47;;;;;;;3.07;2.77;;;;;;;7.49;88.98;98643.34;5093759;28;20594;-65
2021/05/31 04:31:13;;;;;;;3.67;2.90;;;;;;;7.59;88.49;98638.47;5092214;28;20622;-65
2021/05/31 04:33:39;;;;;;;2.97;2.67;;;;;;;7.71;88.86;98648.38;5093832;28;20218;-65
2021/05/31 04:36:05;;;;;;;3.93;2.90;;;;;;;7.80;89.06;98647.91;5093455;28;20363;-65
2021/05/31 04:38:33;;;;;;;3.53;3.10;;;;;;;7.90;88.71;98639.47;5093608;28;20210;-65
2021/05/31 04:40:59;;;;;;;3.20;2.80;;;;;;;8.07;86.50;98646.50;5093737;28;20225;-65
2021/05/31 04:43:25;;;;;;;4.93;3.13;;;;;;;8.30;85.75;98638.31;5093890;28;20283;-65
2021/05/31 04:45:51;;;;;;;2.93;2.63;;;;;;;8.58;85.08;98633.31;5093676;28;20210;-65
2021/05/31 04:48:17;;;;;;;4.50;2.90;;;;;;;8.84;83.59;98646.81;5093492;28;20217;-65
2021/05/31 04:50:43;;;;;;;3.40;2.70;;;;;;;9.23;81.48;98634.03;5093531;28;20735;-65
2021/05/31 04:53:09;;;;;;;2.40;2.20;;;;;;;9.36;79.76;98637.69;5093486;28;20206;-66
2021/05/31 04:55:38;;;;;;;2.90;2.47;;;;;;;9.52;78.86;98635.03;5093256;28;20237;-65
2021/05/31 04:58:04;;;;;;;5.00;2.77;;;;;;;9.66;78.75;98643.03;5091572;28;20739;-64
2021/05/31 05:00:30;;;;;;;4.30;2.90;;;;;;;9.89;79.92;98640.75;5092852;28;20206;-65
2021/05/31 05:02:56;;;;;;;4.23;3.00;;;;;;;10.23;79.29;98650.22;5092786;28;20267;-64
2021/05/31 05:05:23;;;;;;;3.23;2.83;;;;;;;11.12;76.62;98648.19;5093396;28;20221;-64
2021/05/31 05:07:49;;;;;;;3.63;3.13;;;;;;;12.15;70.63;98643.94;5093354;28;20552;-65
2021/05/31 05:10:17;;;;;;;4.83;2.67;;;;;;;13.08;66.40;98642.69;5093282;28;20214;-64
2021/05/31 05:12:46;;;;;;;3.17;2.67;;;;;;;13.94;62.60;98644.31;5093242;28;20222;-65
2021/05/31 05:15:13;;;;;;;3.60;2.53;;;;;;;14.84;58.67;98639.97;5093349;28;20587;-65
2021/05/31 05:17:39;;;;;;;3.07;2.70;;;;;;;15.74;56.00;98641.47;5093155;28;20642;-65
2021/05/31 05:20:07;;;;;;;2.60;2.40;;;;;;;16.52;53.94;98641.00;5093284;28;20217;-65
2021/05/31 05:22:33;;;;;;;2.87;2.57;;;;;;;17.14;52.77;98633.75;5092082;28;20207;-65
2021/05/31 05:24:59;;;;;;;3.17;2.63;;;;;;;17.71;49.96;98638.47;5092886;28;20305;-65
2021/05/31 05:27:25;;;;;;;3.80;2.60;;;;;;;18.07;48.42;98635.13;5093092;28;20207;-65
2021/05/31 05:29:52;;;;;;;3.10;2.80;;;;;;;18.36;47.72;98636.00;5093177;28;20275;-65
2021/05/31 05:32:19;;;;;;;3.80;2.53;;;;;;;18.67;47.60;98635.69;5093049;28;20259;-65
2021/05/31 05:34:45;;;;;;;2.50;2.30;;;;;;;18.94;46.22;98640.25;5092983;28;20225;-65
2021/05/31 05:37:14;;;;;;;2.93;2.50;;;;;;;19.11;45.39;98634.13;5092683;28;20231;-65
2021/05/31 05:42:32;;;;;;;3.50;2.17;;;;;;;19.50;45.66;98636.53;5083904;28;20273;-64
2021/05/31 05:45:17;;;;;;;3.07;2.57;;;;;;;19.72;43.07;98636.13;5092666;28;20221;-64
2021/05/31 05:47:44;;;;;;;2.60;2.40;;;;;;;20.04;42.36;98646.34;5092894;28;20215;-64
2021/05/31 05:50:12;;;;;;;4.53;2.60;;;;;;;20.27;40.62;98643.09;5090900;28;20547;-64
2021/05/31 05:52:38;;;;;;;3.00;2.50;;;;;;;20.11;39.83;98644.78;5092573;28;20218;-64
2021/05/31 05:55:06;;;;;;;4.17;2.90;;;;;;;20.06;40.54;98642.53;5092847;28;20207;-64
2021/05/31 05:57:32;;;;;;;4.17;2.77;;;;;;;20.39;40.77;98647.22;5092838;28;20291;-64
2021/05/31 06:00:03;;;;;;;2.97;2.30;;;;;;;20.81;40.16;98645.56;5092540;28;20211;-65
2021/05/31 06:02:30;;;;;;;2.80;2.40;;;;;;;20.89;39.52;98651.00;5092961;28;20258;-64
2021/05/31 06:04:56;;;;;;;3.47;2.33;;;;;;;21.18;39.88;98646.16;5092596;28;20250;-65
2021/05/31 06:07:22;;;;;;;2.93;2.30;;;;;;;21.38;38.61;98652.97;5092874;28;20207;-65
2021/05/31 06:09:48;;;;;;;3.20;2.90;;;;;;;21.66;38.35;98646.38;5092784;28;20219;-64
2021/05/31 06:12:14;;;;;;;2.47;2.27;;;;;;;21.29;37.84;98643.19;5093249;28;20218;-65
2021/05/31 06:14:40;;;;;;;6.40;2.70;;;;;;;21.30;38.47;98650.25;5095454;28;20207;-65
2021/05/31 06:17:07;;;;;;;2.73;2.53;;;;;;;21.46;38.20;98649.47;5095489;28;20277;-65
2021/05/31 06:19:33;;;;;;;3.70;2.67;;;;;;;21.54;37.19;98652.19;5096415;28;20210;-65
2021/05/31 06:21:59;;;;;;;2.60;2.40;;;;;;;21.77;37.74;98654.16;5096145;28;20253;-63
2021/05/31 06:24:25;;;;;;;3.20;2.27;;;;;;;21.95;37.77;98656.75;5096293;28;20215;-64
2021/05/31 06:26:51;;;;;;;2.53;2.33;;;;;;;22.01;36.48;98654.22;5095910;28;20207;-64
2021/05/31 06:29:17;;;;;;;3.70;2.40;;;;;;;22.02;36.92;98664.03;5095973;28;20213;-64
2021/05/31 06:31:43;;;;;;;2.60;2.40;;;;;;;22.36;36.74;98655.84;5095891;28;20222;-64
2021/05/31 06:34:10;;;;;;;3.67;2.60;;;;;;;22.42;36.70;98656.00;5096153;28;20237;-64
2021/05/31 06:36:40;;;;;;;2.60;2.40;;;;;;;22.33;36.58;98653.47;5095815;28;20245;-64
2021/05/31 06:39:07;;;;;;;2.60;2.40;;;;;;;22.40;37.00;98647.25;5096082;28;20207;-64
2021/05/31 06:41:33;;;;;;;4.63;2.80;;;;;;;22.62;37.62;98651.16;5093976;28;20246;-64
2021/05/31 06:43:59;;;;;;;2.77;2.57;;;;;;;22.43;36.28;98657.69;5095842;28;20206;-64
2021/05/31 06:46:25;;;;;;;4.63;2.50;;;;;;;22.42;37.01;98656.00;5095893;28;20264;-64
2021/05/31 06:48:51;;;;;;;3.13;2.73;;;;;;;22.61;37.09;98655.69;5095786;28;20303;-64
2021/05/31 06:51:19;;;;;;;3.10;2.80;;;;;;;22.80;37.35;98649.94;5095790;28;20214;-64
2021/05/31 06:53:45;;;;;;;4.17;2.83;;;;;;;22.79;37.59;98644.75;5094741;28;20214;-64
2021/05/31 06:56:11;;;;;;;2.60;2.40;;;;;;;22.66;37.34;98641.69;5094780;28;20234;-64
2021/05/31 06:58:37;;;;;;;3.53;2.33;;;;;;;22.35;38.22;98641.50;5094765;28;20696;-64
2021/05/31 07:01:03;;;;;;;2.80;2.60;;;;;;;21.81;38.46;98646.59;5095004;28;20211;-64
2021/05/31 07:03:30;;;;;;;2.77;2.50;;;;;;;21.27;40.00;98650.56;5094670;28;20213;-64
2021/05/31 07:05:56;;;;;;;2.77;2.57;;;;;;;20.21;42.00;98649.06;5094988;28;20217;-64
2021/05/31 07:08:25;;;;;;;2.93;2.63;;;;;;;18.72;44.65;98644.09;5093334;28;20207;-64
2021/05/31 07:10:54;;;;;;;2.80;2.50;;;;;;;17.68;49.25;98647.59;5094752;28;20210;-64
2021/05/31 07:13:20;;;;;;;4.27;2.40;;;;;;;17.05;50.61;98645.25;5094830;28;20207;-64
2021/05/31 07:15:47;;;;;;;2.87;2.57;;;;;;;16.63;49.26;98648.13;5094631;28;20207;-64
2021/05/31 07:18:13;;;;;;;2.77;2.30;;;;;;;16.31;51.51;98644.63;5094368;28;20699;-64
2021/05/31 07:20:40;;;;;;;3.07;2.30;;;;;;;16.15;51.93;98645.06;5094234;28;20210;-64
2021/05/31 07:23:06;;;;;;;3.23;2.30;;;;;;;16.26;53.06;98650.34;5094479;28;20210;-64
2021/05/31 07:25:33;;;;;;;2.50;2.30;;;;;;;16.09;53.80;98648.22;5093463;28;20211;-64
2021/05/31 07:27:59;;;;;;;2.50;2.30;;;;;;;16.07;54.81;98638.66;5094591;28;20214;-64
2021/05/31 07:30:26;;;;;;;2.30;2.10;;;;;;;16.21;54.51;98635.72;5094676;28;20582;-64
2021/05/31 07:32:52;;;;;;;2.30;2.10;;;;;;;16.33;54.17;98640.84;5094294;28;20210;-64
2021/05/31 07:35:18;;;;;;;2.20;1.93;;;;;;;16.39;52.72;98629.69;5092542;28;20211;-64
2021/05/31 07:37:44;;;;;;;2.27;2.00;;;;;;;16.53;50.89;98629.34;5094255;28;20284;-64
2021/05/31 07:40:13;;;;;;;2.90;1.97;;;;;;;16.71;51.39;98630.44;5094328;28;20549;-64
2021/05/31 07:42:41;;;;;;;2.80;2.23;;;;;;;16.68;50.68;98633.41;5094337;28;20238;-65
2021/05/31 07:45:10;;;;;;;2.20;2.00;;;;;;;16.70;51.77;98634.09;5093925;28;20225;-64
2021/05/31 07:47:36;;;;;;;3.30;1.83;;;;;;;16.81;50.19;98626.03;5093962;28;20698;-64
2021/05/31 07:50:05;;;;;;;3.30;2.10;;;;;;;16.96;50.02;98629.19;5094150;28;20209;-65
2021/05/31 07:52:31;;;;;;;2.20;2.00;;;;;;;17.00;47.14;98626.09;5093662;28;20206;-64
2021/05/31 07:54:57;;;;;;;1.90;1.80;;;;;;;16.99;48.18;98632.44;5093738;28;20252;-64
2021/05/31 07:57:25;;;;;;;3.07;2.00;;;;;;;16.85;49.21;98627.47;5090716;28;20590;-64
2021/05/31 07:59:53;;;;;;;2.20;1.80;;;;;;;17.09;47.59;98630.66;5092870;28;20215;-64
2021/05/31 08:02:20;;;;;;;2.53;2.00;;;;;;;17.12;46.77;98635.72;5091153;28;20199;-65
2021/05/31 08:04:46;;;;;;;2.00;1.90;;;;;;;17.09;47.36;98633.34;5092323;28;20289;-64
2021/05/31 08:07:12;;;;;;;2.03;1.90;;;;;;;17.15;48.08;98624.78;5090439;28;20215;-64
2021/05/31 08:09:39;;;;;;;2.47;2.27;;;;;;;17.12;49.25;98630.38;5092675;28;20210;-65
2021/05/31 08:12:07;;;;;;;2.37;1.97;;;;;;;17.22;48.70;98625.94;5092106;28;20230;-65
2021/05/31 08:14:33;;;;;;;2.27;2.07;;;;;;;17.20;48.17;98627.88;5092954;28;20210;-64
2021/05/31 08:17:01;;;;;;;2.57;2.13;;;;;;;17.27;48.07;98618.38;5092031;28;20583;-64
2021/05/31 08:19:30;;;;;;;2.63;1.87;;;;;;;17.33;48.05;98624.97;5091838;28;20211;-64
2021/05/31 08:21:56;;;;;;;3.13;2.13;;;;;;;17.44;45.83;98625.72;5092685;28;20215;-64
2021/05/31 08:24:22;;;;;;;2.47;2.00;;;;;;;17.40;46.46;98628.81;5092728;28;20206;-64
2021/05/31 08:26:48;;;;;;;2.63;2.00;;;;;;;17.40;45.55;98619.00;5093210;28;20583;-64
2021/05/31 08:29:14;;;;;;;2.97;2.43;;;;;;;17.44;47.90;98620.38;5091753;28;20618;-64
2021/05/31 08:31:41;;;;;;;2.43;1.90;;;;;;;17.47;47.32;98619.28;5093563;28;20203;-64
2021/05/31 08:34:08;;;;;;;2.83;1.90;;;;;;;17.42;47.64;98617.03;5094146;28;20203;-64
2021/05/31 08:36:35;;;;;;;2.83;2.30;;;;;;;17.46;49.64;98617.59;5093872;28;20708;-64
2021/05/31 08:39:01;;;;;;;2.40;2.20;;;;;;;17.56;47.26;98608.59;5094396;28;20706;-65
2021/05/31 08:41:27;;;;;;;2.30;2.07;;;;;;;17.61;47.64;98602.88;5094530;28;20215;-64
2021/05/31 08:43:54;;;;;;;2.00;1.80;;;;;;;17.79;48.28;98610.06;5094393;28;20210;-65
2021/05/31 08:46:20;;;;;;;3.07;2.10;;;;;;;17.74;44.67;98614.97;5094734;28;20727;-64
2021/05/31 08:48:47;;;;;;;1.90;1.80;;;;;;;17.66;42.81;98620.16;5094277;28;20210;-64
2021/05/31 08:51:17;;;;;;;3.13;2.00;;;;;;;17.47;45.54;98614.78;5093246;28;20203;-64
2021/05/31 08:53:44;;;;;;;2.37;1.93;;;;;;;17.43;44.53;98613.34;5092928;28;20218;-64
2021/05/31 08:56:10;;;;;;;2.17;1.97;;;;;;;17.34;46.29;98616.81;5091487;28;20230;-65
2021/05/31 08:58:36;;;;;;;2.53;2.20;;;;;;;17.50;47.43;98611.81;5093067;28;20219;-65
2021/05/31 09:01:03;;;;;;;2.37;2.17;;;;;;;17.69;47.73;98617.19;5092627;28;20561;-64
2021/05/31 09:03:29;;;;;;;2.43;2.23;;;;;;;17.77;47.97;98611.16;5092643;28;20256;-65
2021/05/31 09:05:59;;;;;;;3.30;2.33;;;;;;;17.87;46.95;98618.22;5092676;28;20211;-64
2021/05/31 09:08:26;;;;;;;2.53;2.33;;;;;;;17.88;46.93;98619.94;5092654;28;20577;-64
2021/05/31 09:10:56;;;;;;;4.17;2.30;;;;;;;17.74;43.72;98606.94;5092408;28;20683;-64
2021/05/31 09:13:27;;;;;;;2.43;2.20;;;;;;;17.70;44.24;98616.25;5092663;28;20310;-64
2021/05/31 09:16:04;;;;;;;3.03;2.33;;;;;;;17.66;47.83;98604.13;5092568;28;20272;-64
2021/05/31 09:18:30;;;;;;;2.37;2.10;;;;;;;17.61;44.32;98606.38;5092482;28;20233;-64
2021/05/31 09:20:57;;;;;;;2.53;2.17;;;;;;;17.71;43.91;98601.88;5091065;28;20206;-64
2021/05/31 09:23:23;;;;;;;3.27;2.20;;;;;;;17.69;44.66;98598.50;5092558;28;20276;-65
2021/05/31 09:25:50;;;;;;;2.33;2.13;;;;;;;17.80;47.87;98595.69;5092511;28;20610;-64
2021/05/31 09:28:16;;;;;;;2.27;2.07;;;;;;;17.80;45.03;98597.53;5092456;28;20202;-64
2021/05/31 09:30:44;;;;;;;2.37;2.17;;;;;;;17.83;49.18;98598.09;5092226;28;20242;-65
2021/05/31 09:33:12;;;;;;;2.60;2.20;;;;;;;18.07;47.17;98603.03;5092460;28;20211;-65
2021/05/31 09:35:39;;;;;;;3.33;1.90;;;;;;;18.14;46.07;98599.66;5092192;28;20731;-65
2021/05/31 09:38:05;;;;;;;3.03;2.20;;;;;;;18.28;45.83;98607.22;5092237;28;20234;-65
2021/05/31 09:40:32;;;;;;;3.47;2.20;;;;;;;18.33;45.43;98604.16;5092345;28;20210;-64
2021/05/31 09:43:01;;;;;;;2.10;1.90;;;;;;;18.38;42.53;98596.56;5091888;28;20239;-63
2021/05/31 09:45:28;;;;;;;5.73;2.10;;;;;;;18.39;42.94;98591.06;5092413;28;20207;-64
2021/05/31 09:48:00;;;;;;;2.10;2.00;;;;;;;18.42;44.64;98593.44;5092514;28;20203;-64
2021/05/31 09:50:28;;;;;;;2.47;2.10;;;;;;;18.39;45.29;98591.06;5096255;28;20203;-64
2021/05/31 09:53:08;;;;;;;3.80;2.40;;;;;;;18.38;45.49;98584.03;5096160;28;20593;-64
2021/05/31 09:55:36;;;;;;;2.20;2.00;;;;;;;18.55;46.91;98585.13;5096073;28;20210;-63
2021/05/31 09:58:09;;;;;;;2.20;2.00;;;;;;;18.68;47.93;98591.84;5095829;28;20723;-63
2021/05/31 10:00:35;;;;;;;2.20;2.00;;;;;;;18.78;45.31;98589.13;5095985;28;20211;-64
2021/05/31 10:03:16;;;;;;;2.23;2.00;;;;;;;18.81;42.56;98584.34;5096147;28;20211;-64
2021/05/31 10:05:48;;;;;;;2.30;2.10;;;;;;;18.76;45.62;98591.97;5096235;28;20221;-63
2021/05/31 10:10:58;;;;;;;3.10;2.27;;;;;;;18.94;45.35;98587.53;5095432;28;20243;-63
2021/05/31 10:13:27;;;;;;;3.30;2.20;;;;;;;19.01;45.55;98579.75;5095532;28;20205;-64
2021/05/31 10:15:53;;;;;;;2.80;2.50;;;;;;;19.15;44.08;98569.38;5094322;28;20242;-64
2021/05/31 10:18:20;;;;;;;2.27;2.07;;;;;;;18.98;43.94;98575.53;5095886;28;20206;-63
2021/05/31 10:20:47;;;;;;;2.10;1.80;;;;;;;19.06;41.34;98572.94;5095772;28;20240;-63
2021/05/31 10:23:15;;;;;;;2.43;1.93;;;;;;;18.87;43.61;98575.72;5095861;28;20259;-63
2021/05/31 10:25:46;;;;;;;2.50;2.03;;;;;;;18.85;45.37;98577.72;5095721;28;20218;-64
2021/05/31 10:28:14;;;;;;;3.10;2.17;;;;;;;19.02;42.88;98576.09;5095542;28;20218;-63
2021/05/31 10:30:43;;;;;;;3.20;2.10;;;;;;;19.03;41.10;98567.88;5095268;28;20211;-64
2021/05/31 10:33:13;;;;;;;2.73;1.93;;;;;;;19.00;44.05;98570.00;5095530;28;20237;-64
2021/05/31 10:35:40;;;;;;;2.07;1.90;;;;;;;18.95;45.25;98573.13;5095552;28;20210;-64
2021/05/31 10:38:11;;;;;;;2.07;1.97;;;;;;;18.98;44.85;98564.81;5095235;28;20714;-63
2021/05/31 10:40:43;;;;;;;2.20;2.00;;;;;;;19.07;45.11;98571.97;5095046;28;20206;-63
2021/05/31 10:43:11;;;;;;;2.60;2.40;;;;;;;19.16;44.73;98565.72;5094389;28;20243;-63
2021/05/31 10:45:39;;;;;;;2.03;1.90;;;;;;;19.18;42.06;98560.19;5095087;28;20207;-63
2021/05/31 10:48:10;;;;;;;1.93;1.77;;;;;;;19.25;44.05;98570.22;5095050;28;20684;-64
2021/05/31 10:50:37;;;;;;;2.03;1.93;;;;;;;19.33;43.31;98572.97;5095056;28;20210;-63
2021/05/31 10:53:07;;;;;;;2.43;2.17;;;;;;;19.29;43.34;98558.19;5095276;28;20206;-64
2021/05/31 10:55:33;;;;;;;2.13;1.97;;;;;;;19.44;43.04;98572.78;5095203;28;20616;-63
2021/05/31 10:57:59;;;;;;;2.30;2.10;;;;;;;19.43;43.75;98559.50;5094654;28;20309;-64
2021/05/31 11:00:28;;;;;;;4.60;2.17;;;;;;;19.44;40.91;98558.53;5094006;28;20211;-64
2021/05/31 11:03:10;;;;;;;2.80;2.20;;;;;;;19.55;45.17;98559.16;5095095;28;20237;-63
2021/05/31 11:05:36;;;;;;;2.17;1.90;;;;;;;19.57;38.23;98562.53;5094736;28;20293;-63
2021/05/31 11:08:05;;;;;;;2.50;1.97;;;;;;;19.45;44.11;98569.09;5093417;28;20649;-63
2021/05/31 11:10:32;;;;;;;2.50;2.30;;;;;;;19.42;43.05;98556.00;5094595;28;20215;-63
2021/05/31 11:13:09;;;;;;;1.83;1.73;;;;;;;19.48;44.78;98555.41;5094499;28;20752;-64
2021/05/31 11:15:35;;;;;;;3.33;1.97;;;;;;;19.50;38.38;98553.41;5094555;28;20203;-63
2021/05/31 11:18:02;;;;;;;2.20;1.90;;;;;;;19.38;39.20;98561.81;5094574;28;20226;-64
2021/05/31 11:20:30;;;;;;;2.03;1.90;;;;;;;19.58;42.77;98566.88;5094640;28;20223;-63
2021/05/31 11:22:58;;;;;;;2.63;2.23;;;;;;;19.59;39.55;98565.91;5094604;28;20215;-63
2021/05/31 11:25:25;;;;;;;3.67;1.80;;;;;;;19.68;38.97;98564.16;5094286;28;20210;-63
2021/05/31 11:27:53;;;;;;;2.70;2.00;;;;;;;19.64;38.95;98558.22;5094226;28;20260;-63
2021/05/31 11:30:23;;;;;;;2.47;2.10;;;;;;;19.59;41.27;98549.81;5094137;28;20211;-64
2021/05/31 11:32:49;;;;;;;2.40;2.20;;;;;;;19.66;40.59;98560.78;5094154;28;20571;-63
2021/05/31 11:35:16;;;;;;;2.60;2.40;;;;;;;19.64;42.26;98552.88;5092573;28;20676;-63
2021/05/31 11:37:46;;;;;;;2.23;2.03;;;;;;;19.72;43.92;98552.97;5094269;28;20317;-63
2021/05/31 11:40:17;;;;;;;2.90;1.97;;;;;;;19.87;41.61;98547.91;5094214;28;20252;-64
2021/05/31 11:42:45;;;;;;;1.83;1.70;;;;;;;19.90;37.98;98543.09;5094256;28;20242;-63
2021/05/31 11:45:13;;;;;;;3.50;2.33;;;;;;;19.87;43.59;98543.38;5094651;28;20213;-64
2021/05/31 11:47:39;;;;;;;2.30;2.10;;;;;;;19.98;42.81;98535.09;5093966;28;20677;-64
2021/05/31 11:50:05;;;;;;;2.47;2.27;;;;;;;20.13;41.24;98533.59;5094140;28;20256;-64